메인 페이지
METAR-TAF:

METAR-TAF

공항 :

매리에타, 조지아, 미국

위도: 33-55N, 경도: 084-31W, 고도: 326m

현재 날씨관측

예보는 50분 전, 13:56시(UTC)에 발표되었습니다.
7kt
온도 24°C
습도 83%
기압 1019 hPa
시정: 16.1km
고도 1700ft 상공 구름 조금
고도 13000ft 상공 구름 많음
고도 25000ft 상공 구름 많음

METAR: KMGE 251356Z 27007KT 10SM FEW017 BKN130 BKN250 24/21 A3009 RMK AO2A SLP182 T02390206 $

시각: 10:46 (14:46 UTC)

예보

예보는 1 시간 46분 전, 13:00시(UTC)에 발표되었습니다.
예보 대상 시간: 25일 13시부터 26일 19시까지 (UTC)
서북서10kt
시정 10km 이상
고도 3000ft 상공 구름 조금
고도 12000ft 상공 구름 보통
고도 25000ft 상공 구름 많음
전환 중
25일 14시부터 25일 15시까지 (UTC)
서북서10kt, 순간 최대 풍속 20kt
시정 10km 이상
고도 3000ft 상공 구름 조금
고도 12000ft 상공 구름 보통
고도 25000ft 상공 구름 많음
전환 중
25일 23시부터 25일 24시까지 (UTC)
서북서7kt
시정 10km 이상
고도 25000ft 상공 구름 조금
전환 중
26일 11시부터 26일 12시까지 (UTC)
7kt
시정 10km 이상
고도 5500ft 상공 구름 보통

TAF: KMGE 251300Z 2513/2619 29010KT 9999 FEW030 SCT120 BKN250 QNH3005INS BECMG 2514/2515 30010G20KT 9999 FEW030 SCT120 BKN250 QNH3000INS BECMG 2523/2524 29007KT 9999 FEW250 QNH3004INS BECMG 2611/2612 01007KT 9999 SCT055 QNH3016INS TX32/2522Z TN21/2611Z

4,000개 이상의 공항 관측 자료 및 예보 (METAR 및 TAF 보고).

지도상에서 검색 가능한 기상관측소가 노란 점과 빨간 점으로 표시되어 있습니다.

기상관측소 명을 보려면 표시 위로 마우스를 이동하세요.

날씨 관측과 예보를 보려면 클릭하세요.

지도 변경 : 확대하려면 엑스 표시가 있는 녹색 버튼, 축소하려면 빼기 표시가 있는 녹색 버튼, 다음 페이지의 지도를 보려면 녹색 화살표를 클릭하세요.


METAR-TAF: